Arcadia, Ohio
Current Conditions -  °F | °C
As of 2:53 AM on Saturday 29 Nov 2014 (Local Time) from KFDY Reporting Station
Broken Clouds Broken Clouds  
Wind Chill: 26°   Ceiling: 11000
Heat Index: 33°   Visibility: 10mi
Dew Point: 21°   Wind: 8mph
Humidity: 61%   Direction: 140°SE
Pressure: 30.03"   Gusts: NA
Location:  41.11°N, 83.52°W
Report Text: KFDY 290753Z AUTO 14007KT 10SM BKN110 01/M06 A3003 RMK AO2 SLP176 T00061061
Loading
Personal Weather Stations






























Interactive Weather Map New forecast layout! Learn more

10-Day Weather Forecast

Advertisements
Track Severe Weather on mobile